createdAt,value
2018-09-07T00:02:17.387Z,30.00
2018-09-07T00:11:40.356Z,31.63
2018-09-07T00:14:12.553Z,30.97
2018-09-07T01:44:42.452Z,32.73
2018-09-07T01:47:35.338Z,33.00
2018-09-07T01:50:17.747Z,34.63
2018-09-07T01:53:19.635Z,37.90
2018-09-07T03:04:46.364Z,40.30
2018-09-07T03:17:18.624Z,47.43
2018-09-07T03:19:56.003Z,50.40
2018-09-07T03:22:35.249Z,48.40
2018-09-07T03:25:13.621Z,50.30
2018-09-07T03:28:23.246Z,53.00
2018-09-07T04:52:16.235Z,45.00
2018-09-07T04:55:45.247Z,44.10
2018-09-07T05:01:44.999Z,46.87
2018-09-07T05:16:23.799Z,44.30
2018-09-07T05:18:57.723Z,42.43
2018-09-07T05:21:49.034Z,41.87
2018-09-07T05:30:17.585Z,42.43
2018-09-07T05:32:53.765Z,42.40
2018-09-07T05:36:14.382Z,40.50
2018-09-07T05:39:14.261Z,40.83
2018-09-07T05:41:58.351Z,46.67
2018-09-07T05:45:17.284Z,41.70
2018-09-07T05:47:49.000Z,38.70
2018-09-07T05:50:21.049Z,35.77
2018-09-07T05:52:55.250Z,37.57
2018-09-07T05:56:02.446Z,37.07
2018-09-07T05:58:46.675Z,35.50
2018-09-07T06:47:51.093Z,15.93
2018-09-07T06:50:23.316Z,16.23
2018-09-07T06:56:14.651Z,15.40
2018-09-07T06:59:12.596Z,14.07
2018-09-07T07:02:23.515Z,11.30
2018-09-07T07:05:05.861Z,10.50
2018-09-07T07:07:48.201Z,10.17
2018-09-07T07:10:26.294Z,9.10
2018-09-07T07:12:56.181Z,8.40
2018-09-07T07:15:43.891Z,8.17
2018-09-07T07:18:15.932Z,7.07
2018-09-07T07:20:46.114Z,6.83
2018-09-07T07:26:15.479Z,5.97
2018-09-07T07:32:22.137Z,5.20
2018-09-07T07:35:04.598Z,5.70
2018-09-07T07:37:49.255Z,5.20
2018-09-07T07:40:19.456Z,5.37
2018-09-07T08:28:43.203Z,4.70
2018-09-07T08:32:52.335Z,5.00
2018-09-07T08:38:45.200Z,4.73
2018-09-07T08:41:47.041Z,5.00
2018-09-07T08:44:37.726Z,4.90
2018-09-07T08:47:23.065Z,5.77
2018-09-07T08:49:53.723Z,5.33
2018-09-07T08:52:25.088Z,6.03
2018-09-07T08:55:14.045Z,6.17
2018-09-07T08:57:50.442Z,6.97
2018-09-07T09:00:35.874Z,6.50
2018-09-07T11:13:59.574Z,7.23
2018-09-07T11:16:48.114Z,4.93
2018-09-07T11:20:44.431Z,5.97
2018-09-07T12:16:39.087Z,3.70
2018-09-07T15:36:04.897Z,6.50
